sensor_id;sensor_type;location;lat;lon;timestamp;P1;durP1;ratioP1;P2;durP2;ratioP2
14272;SDS011;7220;49.450;11.052;2023-07-22T00:01:21;5.70;;;3.70;;
14272;SDS011;7220;49.450;11.052;2023-07-22T00:05:22;3.95;;;3.55;;
14272;SDS011;7220;49.450;11.052;2023-07-22T00:09:23;4.38;;;3.80;;
14272;SDS011;7220;49.450;11.052;2023-07-22T00:13:24;4.68;;;3.80;;
14272;SDS011;7220;49.450;11.052;2023-07-22T00:17:26;4.63;;;4.20;;
14272;SDS011;7220;49.450;11.052;2023-07-22T00:21:27;4.60;;;3.83;;
14272;SDS011;7220;49.450;11.052;2023-07-22T00:25:29;4.70;;;4.30;;
14272;SDS011;7220;49.450;11.052;2023-07-22T00:29:29;4.30;;;3.90;;
14272;SDS011;7220;49.450;11.052;2023-07-22T00:33:29;3.83;;;3.50;;
14272;SDS011;7220;49.450;11.052;2023-07-22T00:37:30;4.05;;;3.70;;
14272;SDS011;7220;49.450;11.052;2023-07-22T00:41:30;4.07;;;3.67;;
14272;SDS011;7220;49.450;11.052;2023-07-22T00:45:30;6.10;;;4.05;;
14272;SDS011;7220;49.450;11.052;2023-07-22T00:49:31;6.15;;;3.83;;
14272;SDS011;7220;49.450;11.052;2023-07-22T00:53:32;5.38;;;4.05;;
14272;SDS011;7220;49.450;11.052;2023-07-22T00:57:32;3.90;;;3.60;;
14272;SDS011;7220;49.450;11.052;2023-07-22T01:01:32;4.75;;;3.95;;
14272;SDS011;7220;49.450;11.052;2023-07-22T01:05:33;4.30;;;3.90;;
14272;SDS011;7220;49.450;11.052;2023-07-22T01:09:38;4.15;;;3.75;;
14272;SDS011;7220;49.450;11.052;2023-07-22T01:13:39;4.47;;;3.80;;
14272;SDS011;7220;49.450;11.052;2023-07-22T01:17:39;4.45;;;4.03;;
14272;SDS011;7220;49.450;11.052;2023-07-22T01:21:40;4.95;;;3.97;;
14272;SDS011;7220;49.450;11.052;2023-07-22T01:25:42;4.38;;;3.75;;
14272;SDS011;7220;49.450;11.052;2023-07-22T01:29:43;4.03;;;3.72;;
14272;SDS011;7220;49.450;11.052;2023-07-22T01:33:44;6.15;;;4.00;;
14272;SDS011;7220;49.450;11.052;2023-07-22T01:37:45;4.88;;;3.55;;
14272;SDS011;7220;49.450;11.052;2023-07-22T01:41:45;6.20;;;3.83;;
14272;SDS011;7220;49.450;11.052;2023-07-22T01:45:45;5.03;;;3.72;;
14272;SDS011;7220;49.450;11.052;2023-07-22T01:49:46;5.70;;;4.07;;
14272;SDS011;7220;49.450;11.052;2023-07-22T01:53:46;4.72;;;3.90;;
14272;SDS011;7220;49.450;11.052;2023-07-22T01:57:46;5.70;;;4.00;;
14272;SDS011;7220;49.450;11.052;2023-07-22T02:01:47;4.53;;;4.05;;
14272;SDS011;7220;49.450;11.052;2023-07-22T02:05:47;5.07;;;4.10;;
14272;SDS011;7220;49.450;11.052;2023-07-22T02:09:48;4.35;;;3.95;;
14272;SDS011;7220;49.450;11.052;2023-07-22T02:13:51;4.82;;;3.60;;
14272;SDS011;7220;49.450;11.052;2023-07-22T02:17:52;4.40;;;4.00;;
14272;SDS011;7220;49.450;11.052;2023-07-22T02:21:55;4.53;;;4.05;;
14272;SDS011;7220;49.450;11.052;2023-07-22T02:25:55;5.35;;;3.83;;
14272;SDS011;7220;49.450;11.052;2023-07-22T02:29:55;6.20;;;3.87;;
14272;SDS011;7220;49.450;11.052;2023-07-22T02:33:56;4.30;;;3.90;;
14272;SDS011;7220;49.450;11.052;2023-07-22T02:37:56;4.13;;;3.83;;
14272;SDS011;7220;49.450;11.052;2023-07-22T02:41:56;5.10;;;3.90;;
14272;SDS011;7220;49.450;11.052;2023-07-22T02:45:57;5.28;;;4.40;;
14272;SDS011;7220;49.450;11.052;2023-07-22T02:50:00;5.80;;;4.40;;
14272;SDS011;7220;49.450;11.052;2023-07-22T02:54:00;5.40;;;4.80;;
14272;SDS011;7220;49.450;11.052;2023-07-22T02:58:00;5.22;;;4.00;;
14272;SDS011;7220;49.450;11.052;2023-07-22T03:02:01;5.27;;;4.77;;
14272;SDS011;7220;49.450;11.052;2023-07-22T03:06:01;4.05;;;3.67;;
14272;SDS011;7220;49.450;11.052;2023-07-22T03:10:04;4.38;;;3.97;;
14272;SDS011;7220;49.450;11.052;2023-07-22T03:14:05;4.53;;;4.00;;
14272;SDS011;7220;49.450;11.052;2023-07-22T03:18:05;6.03;;;4.10;;
14272;SDS011;7220;49.450;11.052;2023-07-22T03:22:10;4.90;;;4.45;;
14272;SDS011;7220;49.450;11.052;2023-07-22T03:26:14;4.28;;;3.92;;
14272;SDS011;7220;49.450;11.052;2023-07-22T03:30:15;4.85;;;4.15;;
14272;SDS011;7220;49.450;11.052;2023-07-22T03:34:18;5.18;;;4.57;;
14272;SDS011;7220;49.450;11.052;2023-07-22T03:38:18;6.43;;;4.70;;
14272;SDS011;7220;49.450;11.052;2023-07-22T03:42:18;4.20;;;3.80;;
14272;SDS011;7220;49.450;11.052;2023-07-22T03:46:19;4.50;;;4.10;;
14272;SDS011;7220;49.450;11.052;2023-07-22T03:50:19;5.57;;;5.00;;
14272;SDS011;7220;49.450;11.052;2023-07-22T03:54:19;5.30;;;4.65;;
14272;SDS011;7220;49.450;11.052;2023-07-22T03:58:20;4.70;;;4.30;;
14272;SDS011;7220;49.450;11.052;2023-07-22T04:02:20;5.72;;;4.43;;
14272;SDS011;7220;49.450;11.052;2023-07-22T04:06:21;5.35;;;4.50;;
14272;SDS011;7220;49.450;11.052;2023-07-22T04:10:21;5.03;;;4.20;;
14272;SDS011;7220;49.450;11.052;2023-07-22T04:14:22;6.18;;;4.22;;
14272;SDS011;7220;49.450;11.052;2023-07-22T04:18:23;7.40;;;4.90;;
14272;SDS011;7220;49.450;11.052;2023-07-22T04:22:23;4.97;;;4.57;;
14272;SDS011;7220;49.450;11.052;2023-07-22T04:26:23;5.50;;;4.07;;
14272;SDS011;7220;49.450;11.052;2023-07-22T04:30:24;6.07;;;4.38;;
14272;SDS011;7220;49.450;11.052;2023-07-22T04:34:25;5.47;;;4.60;;
14272;SDS011;7220;49.450;11.052;2023-07-22T04:38:28;5.45;;;4.55;;
14272;SDS011;7220;49.450;11.052;2023-07-22T04:42:29;5.90;;;5.00;;
14272;SDS011;7220;49.450;11.052;2023-07-22T04:46:29;5.30;;;4.80;;
14272;SDS011;7220;49.450;11.052;2023-07-22T04:50:30;5.00;;;4.50;;
14272;SDS011;7220;49.450;11.052;2023-07-22T04:54:30;5.13;;;4.63;;
14272;SDS011;7220;49.450;11.052;2023-07-22T04:58:30;5.33;;;4.73;;
14272;SDS011;7220;49.450;11.052;2023-07-22T05:02:32;5.68;;;5.18;;
14272;SDS011;7220;49.450;11.052;2023-07-22T05:06:32;5.35;;;4.85;;
14272;SDS011;7220;49.450;11.052;2023-07-22T05:10:33;5.43;;;4.75;;
14272;SDS011;7220;49.450;11.052;2023-07-22T05:14:33;4.65;;;4.25;;
14272;SDS011;7220;49.450;11.052;2023-07-22T05:18:33;5.10;;;4.60;;
14272;SDS011;7220;49.450;11.052;2023-07-22T05:22:33;5.03;;;4.57;;
14272;SDS011;7220;49.450;11.052;2023-07-22T05:26:34;5.17;;;4.67;;
14272;SDS011;7220;49.450;11.052;2023-07-22T05:30:34;5.25;;;4.75;;
14272;SDS011;7220;49.450;11.052;2023-07-22T05:34:34;5.18;;;4.57;;
14272;SDS011;7220;49.450;11.052;2023-07-22T05:38:35;5.77;;;4.90;;
14272;SDS011;7220;49.450;11.052;2023-07-22T05:42:35;7.13;;;4.90;;
14272;SDS011;7220;49.450;11.052;2023-07-22T05:46:35;5.15;;;4.75;;
14272;SDS011;7220;49.450;11.052;2023-07-22T05:50:36;5.78;;;4.55;;
14272;SDS011;7220;49.450;11.052;2023-07-22T05:54:36;6.80;;;5.50;;
14272;SDS011;7220;49.450;11.052;2023-07-22T05:58:36;6.83;;;5.27;;
14272;SDS011;7220;49.450;11.052;2023-07-22T06:02:37;7.13;;;5.82;;
14272;SDS011;7220;49.450;11.052;2023-07-22T06:06:37;6.45;;;4.90;;
14272;SDS011;7220;49.450;11.052;2023-07-22T06:10:37;8.17;;;5.00;;
14272;SDS011;7220;49.450;11.052;2023-07-22T06:14:38;7.25;;;5.15;;
14272;SDS011;7220;49.450;11.052;2023-07-22T06:18:38;8.13;;;5.10;;
14272;SDS011;7220;49.450;11.052;2023-07-22T06:22:38;5.43;;;4.93;;
14272;SDS011;7220;49.450;11.052;2023-07-22T06:26:39;5.32;;;4.75;;
14272;SDS011;7220;49.450;11.052;2023-07-22T06:30:39;6.00;;;4.70;;
14272;SDS011;7220;49.450;11.052;2023-07-22T06:34:39;4.75;;;4.25;;
14272;SDS011;7220;49.450;11.052;2023-07-22T06:38:40;7.67;;;4.60;;
14272;SDS011;7220;49.450;11.052;2023-07-22T06:42:40;5.53;;;4.47;;
14272;SDS011;7220;49.450;11.052;2023-07-22T06:46:40;5.38;;;4.40;;
14272;SDS011;7220;49.450;11.052;2023-07-22T06:50:46;10.93;;;5.00;;
14272;SDS011;7220;49.450;11.052;2023-07-22T06:54:47;5.00;;;4.50;;
14272;SDS011;7220;49.450;11.052;2023-07-22T06:58:47;5.50;;;4.60;;
14272;SDS011;7220;49.450;11.052;2023-07-22T07:02:48;5.07;;;4.47;;
14272;SDS011;7220;49.450;11.052;2023-07-22T07:06:49;5.37;;;4.60;;
14272;SDS011;7220;49.450;11.052;2023-07-22T07:10:50;6.18;;;5.18;;
14272;SDS011;7220;49.450;11.052;2023-07-22T07:14:51;6.75;;;4.97;;
14272;SDS011;7220;49.450;11.052;2023-07-22T07:18:51;6.18;;;4.55;;
14272;SDS011;7220;49.450;11.052;2023-07-22T07:22:52;9.00;;;5.10;;
14272;SDS011;7220;49.450;11.052;2023-07-22T07:26:53;6.73;;;4.50;;
14272;SDS011;7220;49.450;11.052;2023-07-22T07:30:53;5.18;;;4.65;;
14272;SDS011;7220;49.450;11.052;2023-07-22T07:34:53;6.37;;;5.27;;
14272;SDS011;7220;49.450;11.052;2023-07-22T07:38:54;6.28;;;4.95;;
14272;SDS011;7220;49.450;11.052;2023-07-22T07:42:54;8.98;;;5.57;;
14272;SDS011;7220;49.450;11.052;2023-07-22T07:46:55;7.32;;;5.45;;
14272;SDS011;7220;49.450;11.052;2023-07-22T07:50:56;8.18;;;5.60;;
14272;SDS011;7220;49.450;11.052;2023-07-22T07:54:56;7.82;;;5.80;;
14272;SDS011;7220;49.450;11.052;2023-07-22T07:58:56;8.43;;;4.80;;
14272;SDS011;7220;49.450;11.052;2023-07-22T08:02:56;9.10;;;5.60;;
14272;SDS011;7220;49.450;11.052;2023-07-22T08:06:57;7.55;;;5.70;;
14272;SDS011;7220;49.450;11.052;2023-07-22T08:11:01;7.47;;;4.95;;
14272;SDS011;7220;49.450;11.052;2023-07-22T08:15:05;10.48;;;5.68;;
14272;SDS011;7220;49.450;11.052;2023-07-22T08:19:06;6.43;;;5.78;;
14272;SDS011;7220;49.450;11.052;2023-07-22T08:23:06;12.90;;;6.80;;
14272;SDS011;7220;49.450;11.052;2023-07-22T08:27:07;7.85;;;5.32;;
14272;SDS011;7220;49.450;11.052;2023-07-22T08:31:07;6.53;;;5.78;;
14272;SDS011;7220;49.450;11.052;2023-07-22T08:35:08;7.35;;;5.18;;
14272;SDS011;7220;49.450;11.052;2023-07-22T08:39:08;6.28;;;5.68;;
14272;SDS011;7220;49.450;11.052;2023-07-22T08:43:09;9.27;;;5.70;;
14272;SDS011;7220;49.450;11.052;2023-07-22T08:47:13;7.32;;;5.85;;
14272;SDS011;7220;49.450;11.052;2023-07-22T08:51:16;7.50;;;5.40;;
14272;SDS011;7220;49.450;11.052;2023-07-22T08:55:17;5.95;;;5.45;;
14272;SDS011;7220;49.450;11.052;2023-07-22T08:59:18;9.10;;;5.90;;
14272;SDS011;7220;49.450;11.052;2023-07-22T09:03:19;9.38;;;5.25;;
14272;SDS011;7220;49.450;11.052;2023-07-22T09:07:19;5.57;;;5.03;;
14272;SDS011;7220;49.450;11.052;2023-07-22T09:11:20;6.55;;;5.07;;
14272;SDS011;7220;49.450;11.052;2023-07-22T09:15:21;6.18;;;5.60;;
14272;SDS011;7220;49.450;11.052;2023-07-22T09:19:23;9.52;;;5.38;;
14272;SDS011;7220;49.450;11.052;2023-07-22T09:23:33;6.33;;;4.77;;
14272;SDS011;7220;49.450;11.052;2023-07-22T09:27:35;6.95;;;4.68;;
14272;SDS011;7220;49.450;11.052;2023-07-22T09:31:45;7.93;;;4.70;;
14272;SDS011;7220;49.450;11.052;2023-07-22T09:35:49;6.18;;;5.00;;
14272;SDS011;7220;49.450;11.052;2023-07-22T09:39:50;4.90;;;4.10;;
14272;SDS011;7220;49.450;11.052;2023-07-22T09:43:50;4.13;;;3.40;;
14272;SDS011;7220;49.450;11.052;2023-07-22T09:47:51;4.83;;;4.00;;
14272;SDS011;7220;49.450;11.052;2023-07-22T09:51:52;4.22;;;3.83;;
14272;SDS011;7220;49.450;11.052;2023-07-22T09:55:53;4.35;;;3.55;;
14272;SDS011;7220;49.450;11.052;2023-07-22T09:59:53;8.48;;;4.50;;
14272;SDS011;7220;49.450;11.052;2023-07-22T10:03:55;4.57;;;3.38;;
14272;SDS011;7220;49.450;11.052;2023-07-22T10:07:57;5.53;;;3.80;;
14272;SDS011;7220;49.450;11.052;2023-07-22T10:11:58;5.90;;;3.75;;
14272;SDS011;7220;49.450;11.052;2023-07-22T10:15:59;6.05;;;3.70;;
14272;SDS011;7220;49.450;11.052;2023-07-22T10:20:00;4.63;;;3.53;;
14272;SDS011;7220;49.450;11.052;2023-07-22T10:24:05;4.55;;;3.58;;
14272;SDS011;7220;49.450;11.052;2023-07-22T10:28:06;5.45;;;3.53;;
14272;SDS011;7220;49.450;11.052;2023-07-22T10:32:08;5.55;;;3.80;;
14272;SDS011;7220;49.450;11.052;2023-07-22T10:36:12;79.57;;;12.13;;
14272;SDS011;7220;49.450;11.052;2023-07-22T10:44:30;106.50;;;14.05;;
14272;SDS011;7220;49.450;11.052;2023-07-22T10:48:35;8.90;;;3.50;;
14272;SDS011;7220;49.450;11.052;2023-07-22T10:52:37;13.35;;;4.43;;
14272;SDS011;7220;49.450;11.052;2023-07-22T10:56:41;36.30;;;7.63;;
14272;SDS011;7220;49.450;11.052;2023-07-22T11:00:43;23.90;;;5.43;;
14272;SDS011;7220;49.450;11.052;2023-07-22T11:04:43;16.70;;;5.13;;
14272;SDS011;7220;49.450;11.052;2023-07-22T11:08:43;10.73;;;4.30;;
14272;SDS011;7220;49.450;11.052;2023-07-22T11:12:44;81.22;;;11.40;;
14272;SDS011;7220;49.450;11.052;2023-07-22T11:16:45;7.32;;;3.83;;
14272;SDS011;7220;49.450;11.052;2023-07-22T11:20:46;6.22;;;3.63;;
14272;SDS011;7220;49.450;11.052;2023-07-22T11:24:53;10.30;;;3.50;;
14272;SDS011;7220;49.450;11.052;2023-07-22T11:28:53;4.60;;;2.90;;
14272;SDS011;7220;49.450;11.052;2023-07-22T11:32:57;4.70;;;2.85;;
14272;SDS011;7220;49.450;11.052;2023-07-22T11:36:58;3.20;;;2.90;;
14272;SDS011;7220;49.450;11.052;2023-07-22T11:40:59;4.43;;;2.53;;
14272;SDS011;7220;49.450;11.052;2023-07-22T11:44:59;4.82;;;2.72;;
14272;SDS011;7220;49.450;11.052;2023-07-22T11:49:00;4.45;;;2.72;;
14272;SDS011;7220;49.450;11.052;2023-07-22T11:53:00;3.58;;;2.70;;
14272;SDS011;7220;49.450;11.052;2023-07-22T11:57:17;8.00;;;3.30;;
14272;SDS011;7220;49.450;11.052;2023-07-22T12:01:22;2.80;;;2.58;;
14272;SDS011;7220;49.450;11.052;2023-07-22T12:05:23;5.68;;;2.70;;
14272;SDS011;7220;49.450;11.052;2023-07-22T12:09:23;3.50;;;2.65;;
14272;SDS011;7220;49.450;11.052;2023-07-22T12:13:24;4.22;;;2.80;;
14272;SDS011;7220;49.450;11.052;2023-07-22T12:17:25;3.72;;;2.72;;
14272;SDS011;7220;49.450;11.052;2023-07-22T12:21:26;3.20;;;2.77;;
14272;SDS011;7220;49.450;11.052;2023-07-22T12:25:27;2.55;;;2.35;;
14272;SDS011;7220;49.450;11.052;2023-07-22T12:29:27;5.97;;;3.00;;
14272;SDS011;7220;49.450;11.052;2023-07-22T12:33:28;3.23;;;2.40;;
14272;SDS011;7220;49.450;11.052;2023-07-22T12:37:28;6.03;;;3.25;;
14272;SDS011;7220;49.450;11.052;2023-07-22T12:41:28;4.00;;;2.75;;
14272;SDS011;7220;49.450;11.052;2023-07-22T12:45:29;11.70;;;4.20;;
14272;SDS011;7220;49.450;11.052;2023-07-22T12:49:29;5.53;;;3.28;;
14272;SDS011;7220;49.450;11.052;2023-07-22T12:53:30;3.60;;;3.30;;
14272;SDS011;7220;49.450;11.052;2023-07-22T12:57:30;4.93;;;2.60;;
14272;SDS011;7220;49.450;11.052;2023-07-22T13:01:30;3.63;;;3.00;;
14272;SDS011;7220;49.450;11.052;2023-07-22T13:05:30;3.97;;;2.90;;
14272;SDS011;7220;49.450;11.052;2023-07-22T13:09:31;5.60;;;2.80;;
14272;SDS011;7220;49.450;11.052;2023-07-22T13:13:31;3.30;;;2.30;;
14272;SDS011;7220;49.450;11.052;2023-07-22T13:17:31;3.80;;;2.80;;
14272;SDS011;7220;49.450;11.052;2023-07-22T13:21:32;3.10;;;2.80;;
14272;SDS011;7220;49.450;11.052;2023-07-22T13:25:32;4.10;;;2.83;;
14272;SDS011;7220;49.450;11.052;2023-07-22T13:29:33;3.73;;;3.17;;
14272;SDS011;7220;49.450;11.052;2023-07-22T13:33:33;2.92;;;2.72;;
14272;SDS011;7220;49.450;11.052;2023-07-22T13:37:34;3.97;;;2.70;;
14272;SDS011;7220;49.450;11.052;2023-07-22T13:41:34;4.07;;;2.67;;
14272;SDS011;7220;49.450;11.052;2023-07-22T13:45:34;3.83;;;3.17;;
14272;SDS011;7220;49.450;11.052;2023-07-22T13:49:35;3.20;;;2.90;;
14272;SDS011;7220;49.450;11.052;2023-07-22T13:53:35;4.30;;;2.77;;
14272;SDS011;7220;49.450;11.052;2023-07-22T13:57:35;2.90;;;2.63;;
14272;SDS011;7220;49.450;11.052;2023-07-22T14:01:36;5.00;;;2.80;;
14272;SDS011;7220;49.450;11.052;2023-07-22T14:05:36;5.05;;;2.80;;
14272;SDS011;7220;49.450;11.052;2023-07-22T14:09:36;4.27;;;2.73;;
14272;SDS011;7220;49.450;11.052;2023-07-22T14:13:37;3.90;;;2.73;;
14272;SDS011;7220;49.450;11.052;2023-07-22T14:17:37;4.77;;;2.80;;
14272;SDS011;7220;49.450;11.052;2023-07-22T14:21:38;2.70;;;2.50;;
14272;SDS011;7220;49.450;11.052;2023-07-22T14:25:39;4.73;;;3.03;;
14272;SDS011;7220;49.450;11.052;2023-07-22T14:29:39;5.10;;;2.77;;
14272;SDS011;7220;49.450;11.052;2023-07-22T14:33:39;3.00;;;2.80;;
14272;SDS011;7220;49.450;11.052;2023-07-22T14:37:40;4.10;;;2.97;;
14272;SDS011;7220;49.450;11.052;2023-07-22T14:41:40;3.33;;;3.00;;
14272;SDS011;7220;49.450;11.052;2023-07-22T14:45:43;3.13;;;2.80;;
14272;SDS011;7220;49.450;11.052;2023-07-22T14:49:43;4.07;;;2.37;;
14272;SDS011;7220;49.450;11.052;2023-07-22T14:53:43;2.43;;;2.23;;
14272;SDS011;7220;49.450;11.052;2023-07-22T14:57:43;3.22;;;2.50;;
14272;SDS011;7220;49.450;11.052;2023-07-22T15:01:45;2.63;;;2.42;;
14272;SDS011;7220;49.450;11.052;2023-07-22T15:05:45;3.00;;;2.40;;
14272;SDS011;7220;49.450;11.052;2023-07-22T15:09:45;5.50;;;3.00;;
14272;SDS011;7220;49.450;11.052;2023-07-22T15:13:46;3.67;;;2.80;;
14272;SDS011;7220;49.450;11.052;2023-07-22T15:17:46;3.17;;;2.87;;
14272;SDS011;7220;49.450;11.052;2023-07-22T15:21:46;2.57;;;2.37;;
14272;SDS011;7220;49.450;11.052;2023-07-22T15:25:47;4.72;;;2.63;;
14272;SDS011;7220;49.450;11.052;2023-07-22T15:29:47;6.23;;;2.70;;
14272;SDS011;7220;49.450;11.052;2023-07-22T15:33:48;2.88;;;2.60;;
14272;SDS011;7220;49.450;11.052;2023-07-22T15:37:48;3.85;;;2.80;;
14272;SDS011;7220;49.450;11.052;2023-07-22T15:41:49;3.13;;;2.83;;
14272;SDS011;7220;49.450;11.052;2023-07-22T15:45:49;3.20;;;2.90;;
14272;SDS011;7220;49.450;11.052;2023-07-22T15:49:49;5.70;;;2.40;;
14272;SDS011;7220;49.450;11.052;2023-07-22T15:53:50;2.53;;;2.20;;
14272;SDS011;7220;49.450;11.052;2023-07-22T15:57:50;2.83;;;2.60;;
14272;SDS011;7220;49.450;11.052;2023-07-22T16:01:50;3.50;;;2.93;;
14272;SDS011;7220;49.450;11.052;2023-07-22T16:05:50;3.77;;;2.80;;
14272;SDS011;7220;49.450;11.052;2023-07-22T16:09:51;2.67;;;2.47;;
14272;SDS011;7220;49.450;11.052;2023-07-22T16:13:51;3.20;;;2.40;;
14272;SDS011;7220;49.450;11.052;2023-07-22T16:17:51;2.73;;;2.33;;
14272;SDS011;7220;49.450;11.052;2023-07-22T16:21:52;3.27;;;2.30;;
14272;SDS011;7220;49.450;11.052;2023-07-22T16:25:52;2.30;;;2.13;;
14272;SDS011;7220;49.450;11.052;2023-07-22T16:29:52;2.60;;;2.40;;
14272;SDS011;7220;49.450;11.052;2023-07-22T16:33:53;2.88;;;2.65;;
14272;SDS011;7220;49.450;11.052;2023-07-22T16:37:56;6.00;;;2.95;;
14272;SDS011;7220;49.450;11.052;2023-07-22T16:41:56;3.63;;;2.38;;
14272;SDS011;7220;49.450;11.052;2023-07-22T16:45:57;3.45;;;2.60;;
14272;SDS011;7220;49.450;11.052;2023-07-22T16:49:57;2.65;;;2.20;;
14272;SDS011;7220;49.450;11.052;2023-07-22T16:53:58;3.03;;;2.50;;
14272;SDS011;7220;49.450;11.052;2023-07-22T16:57:58;6.70;;;2.37;;
14272;SDS011;7220;49.450;11.052;2023-07-22T17:01:58;3.90;;;2.80;;
14272;SDS011;7220;49.450;11.052;2023-07-22T17:05:58;6.93;;;2.80;;
14272;SDS011;7220;49.450;11.052;2023-07-22T17:09:59;3.33;;;2.60;;
14272;SDS011;7220;49.450;11.052;2023-07-22T17:13:59;4.60;;;2.85;;
14272;SDS011;7220;49.450;11.052;2023-07-22T17:17:59;2.90;;;2.53;;
14272;SDS011;7220;49.450;11.052;2023-07-22T17:22:00;3.43;;;2.77;;
14272;SDS011;7220;49.450;11.052;2023-07-22T17:26:00;3.40;;;2.60;;
14272;SDS011;7220;49.450;11.052;2023-07-22T17:30:00;5.70;;;2.70;;
14272;SDS011;7220;49.450;11.052;2023-07-22T17:34:01;3.63;;;2.38;;
14272;SDS011;7220;49.450;11.052;2023-07-22T17:38:01;2.43;;;2.23;;
14272;SDS011;7220;49.450;11.052;2023-07-22T17:42:02;4.07;;;2.92;;
14272;SDS011;7220;49.450;11.052;2023-07-22T17:46:04;6.13;;;2.88;;
14272;SDS011;7220;49.450;11.052;2023-07-22T17:50:04;2.83;;;2.50;;
14272;SDS011;7220;49.450;11.052;2023-07-22T17:54:05;2.60;;;2.40;;
14272;SDS011;7220;49.450;11.052;2023-07-22T17:58:05;3.20;;;2.17;;
14272;SDS011;7220;49.450;11.052;2023-07-22T18:02:06;3.00;;;2.47;;
14272;SDS011;7220;49.450;11.052;2023-07-22T18:06:06;3.78;;;2.90;;
14272;SDS011;7220;49.450;11.052;2023-07-22T18:10:07;2.60;;;2.33;;
14272;SDS011;7220;49.450;11.052;2023-07-22T18:14:08;4.97;;;2.60;;
14272;SDS011;7220;49.450;11.052;2023-07-22T18:18:08;5.20;;;2.80;;
14272;SDS011;7220;49.450;11.052;2023-07-22T18:22:08;2.63;;;2.30;;
14272;SDS011;7220;49.450;11.052;2023-07-22T18:26:08;6.90;;;2.57;;
14272;SDS011;7220;49.450;11.052;2023-07-22T18:30:09;3.05;;;2.72;;
14272;SDS011;7220;49.450;11.052;2023-07-22T18:34:09;2.97;;;2.70;;
14272;SDS011;7220;49.450;11.052;2023-07-22T18:38:11;3.75;;;2.80;;
14272;SDS011;7220;49.450;11.052;2023-07-22T18:42:11;3.70;;;2.57;;
14272;SDS011;7220;49.450;11.052;2023-07-22T18:46:15;4.03;;;2.72;;
14272;SDS011;7220;49.450;11.052;2023-07-22T18:50:16;3.42;;;3.13;;
14272;SDS011;7220;49.450;11.052;2023-07-22T18:54:17;3.30;;;3.00;;
14272;SDS011;7220;49.450;11.052;2023-07-22T18:58:17;4.90;;;2.80;;
14272;SDS011;7220;49.450;11.052;2023-07-22T19:02:17;3.20;;;2.90;;
14272;SDS011;7220;49.450;11.052;2023-07-22T19:06:18;4.00;;;3.30;;
14272;SDS011;7220;49.450;11.052;2023-07-22T19:10:18;3.60;;;3.20;;
14272;SDS011;7220;49.450;11.052;2023-07-22T19:14:18;4.32;;;3.15;;
14272;SDS011;7220;49.450;11.052;2023-07-22T19:18:19;5.53;;;3.00;;
14272;SDS011;7220;49.450;11.052;2023-07-22T19:22:19;3.17;;;2.88;;
14272;SDS011;7220;49.450;11.052;2023-07-22T19:26:19;4.77;;;3.27;;
14272;SDS011;7220;49.450;11.052;2023-07-22T19:30:20;3.55;;;3.25;;
14272;SDS011;7220;49.450;11.052;2023-07-22T19:34:20;5.13;;;3.10;;
14272;SDS011;7220;49.450;11.052;2023-07-22T19:38:20;3.30;;;3.00;;
14272;SDS011;7220;49.450;11.052;2023-07-22T19:42:21;6.37;;;3.57;;
14272;SDS011;7220;49.450;11.052;2023-07-22T19:46:22;6.72;;;3.13;;
14272;SDS011;7220;49.450;11.052;2023-07-22T19:50:22;3.92;;;3.00;;
14272;SDS011;7220;49.450;11.052;2023-07-22T19:54:22;4.95;;;3.53;;
14272;SDS011;7220;49.450;11.052;2023-07-22T19:58:23;3.67;;;3.37;;
14272;SDS011;7220;49.450;11.052;2023-07-22T20:02:26;4.00;;;3.70;;
14272;SDS011;7220;49.450;11.052;2023-07-22T20:06:27;5.70;;;3.97;;
14272;SDS011;7220;49.450;11.052;2023-07-22T20:10:27;6.47;;;4.90;;
14272;SDS011;7220;49.450;11.052;2023-07-22T20:14:28;5.05;;;4.55;;
14272;SDS011;7220;49.450;11.052;2023-07-22T20:18:28;6.15;;;3.78;;
14272;SDS011;7220;49.450;11.052;2023-07-22T20:22:29;4.38;;;3.70;;
14272;SDS011;7220;49.450;11.052;2023-07-22T20:26:29;4.13;;;3.63;;
14272;SDS011;7220;49.450;11.052;2023-07-22T20:30:30;4.30;;;3.78;;
14272;SDS011;7220;49.450;11.052;2023-07-22T20:34:30;4.87;;;4.17;;
14272;SDS011;7220;49.450;11.052;2023-07-22T20:38:30;4.70;;;3.60;;
14272;SDS011;7220;49.450;11.052;2023-07-22T20:42:31;4.50;;;4.10;;
14272;SDS011;7220;49.450;11.052;2023-07-22T20:46:31;5.83;;;4.33;;
14272;SDS011;7220;49.450;11.052;2023-07-22T20:50:34;6.82;;;3.90;;
14272;SDS011;7220;49.450;11.052;2023-07-22T20:54:35;6.20;;;4.38;;
14272;SDS011;7220;49.450;11.052;2023-07-22T20:58:35;5.60;;;4.20;;
14272;SDS011;7220;49.450;11.052;2023-07-22T21:02:35;6.20;;;4.37;;
14272;SDS011;7220;49.450;11.052;2023-07-22T21:06:36;6.25;;;4.32;;
14272;SDS011;7220;49.450;11.052;2023-07-22T21:10:37;5.10;;;4.28;;
14272;SDS011;7220;49.450;11.052;2023-07-22T21:14:37;7.97;;;6.20;;
14272;SDS011;7220;49.450;11.052;2023-07-22T21:18:37;12.73;;;9.53;;
14272;SDS011;7220;49.450;11.052;2023-07-22T21:22:38;13.57;;;10.63;;
14272;SDS011;7220;49.450;11.052;2023-07-22T21:26:38;9.82;;;7.30;;
14272;SDS011;7220;49.450;11.052;2023-07-22T21:30:38;9.15;;;6.70;;
14272;SDS011;7220;49.450;11.052;2023-07-22T21:34:39;7.55;;;6.60;;
14272;SDS011;7220;49.450;11.052;2023-07-22T21:38:39;7.57;;;6.67;;
14272;SDS011;7220;49.450;11.052;2023-07-22T21:42:40;12.10;;;6.35;;
14272;SDS011;7220;49.450;11.052;2023-07-22T21:46:40;7.53;;;5.18;;
14272;SDS011;7220;49.450;11.052;2023-07-22T21:50:40;7.33;;;5.77;;
14272;SDS011;7220;49.450;11.052;2023-07-22T21:54:41;6.00;;;4.32;;
14272;SDS011;7220;49.450;11.052;2023-07-22T21:58:41;5.80;;;4.90;;
14272;SDS011;7220;49.450;11.052;2023-07-22T22:02:41;5.88;;;5.25;;
14272;SDS011;7220;49.450;11.052;2023-07-22T22:06:42;7.60;;;4.90;;
14272;SDS011;7220;49.450;11.052;2023-07-22T22:10:44;6.20;;;5.25;;
14272;SDS011;7220;49.450;11.052;2023-07-22T22:14:46;5.00;;;4.20;;
14272;SDS011;7220;49.450;11.052;2023-07-22T22:18:51;4.55;;;4.13;;
14272;SDS011;7220;49.450;11.052;2023-07-22T22:22:51;5.00;;;4.40;;
14272;SDS011;7220;49.450;11.052;2023-07-22T22:26:51;5.78;;;4.43;;
14272;SDS011;7220;49.450;11.052;2023-07-22T22:30:52;5.20;;;4.50;;
14272;SDS011;7220;49.450;11.052;2023-07-22T22:34:52;7.97;;;4.50;;
14272;SDS011;7220;49.450;11.052;2023-07-22T22:38:52;6.93;;;4.53;;
14272;SDS011;7220;49.450;11.052;2023-07-22T22:42:53;6.97;;;4.67;;
14272;SDS011;7220;49.450;11.052;2023-07-22T22:46:53;6.90;;;5.43;;
14272;SDS011;7220;49.450;11.052;2023-07-22T22:50:53;5.90;;;5.30;;
14272;SDS011;7220;49.450;11.052;2023-07-22T22:54:54;8.27;;;5.95;;
14272;SDS011;7220;49.450;11.052;2023-07-22T22:58:54;8.10;;;4.80;;
14272;SDS011;7220;49.450;11.052;2023-07-22T23:02:54;5.83;;;5.30;;
14272;SDS011;7220;49.450;11.052;2023-07-22T23:06:56;7.43;;;5.68;;
14272;SDS011;7220;49.450;11.052;2023-07-22T23:10:56;9.33;;;5.17;;
14272;SDS011;7220;49.450;11.052;2023-07-22T23:14:56;5.28;;;4.78;;
14272;SDS011;7220;49.450;11.052;2023-07-22T23:18:58;5.95;;;4.78;;
14272;SDS011;7220;49.450;11.052;2023-07-22T23:22:58;5.13;;;4.63;;
14272;SDS011;7220;49.450;11.052;2023-07-22T23:26:59;5.70;;;5.10;;
14272;SDS011;7220;49.450;11.052;2023-07-22T23:30:59;5.38;;;4.70;;
14272;SDS011;7220;49.450;11.052;2023-07-22T23:35:01;6.18;;;4.85;;
14272;SDS011;7220;49.450;11.052;2023-07-22T23:39:02;5.45;;;4.78;;
14272;SDS011;7220;49.450;11.052;2023-07-22T23:43:04;5.88;;;5.28;;
14272;SDS011;7220;49.450;11.052;2023-07-22T23:47:04;6.97;;;5.47;;
14272;SDS011;7220;49.450;11.052;2023-07-22T23:51:05;7.40;;;5.15;;
14272;SDS011;7220;49.450;11.052;2023-07-22T23:55:05;5.83;;;4.67;;
14272;SDS011;7220;49.450;11.052;2023-07-22T23:59:06;6.50;;;5.07;;
